createdAt,value
2022-09-20T00:01:40.834Z,98795.62
2022-09-20T00:04:10.196Z,98793.80
2022-09-20T00:06:38.451Z,98794.36
2022-09-20T00:09:06.827Z,98795.31
2022-09-20T00:11:37.088Z,98793.23
2022-09-20T00:14:08.985Z,98792.09
2022-09-20T00:16:41.126Z,98792.47
2022-09-20T00:19:17.086Z,98798.00
2022-09-20T00:21:45.562Z,98796.07
2022-09-20T00:24:14.310Z,98797.06
2022-09-20T00:26:42.624Z,98797.67
2022-09-20T00:29:10.959Z,98797.45
2022-09-20T00:31:40.446Z,98796.81
2022-09-20T00:34:29.161Z,98800.16
2022-09-20T00:36:57.198Z,98799.52
2022-09-20T00:39:25.180Z,98799.88
2022-09-20T00:41:53.206Z,98799.27
2022-09-20T00:45:01.255Z,98797.80
2022-09-20T00:47:35.936Z,98797.91
2022-09-20T00:50:22.161Z,98797.66
2022-09-20T00:52:58.417Z,98799.27
2022-09-20T00:55:28.119Z,98801.36
2022-09-20T00:57:57.048Z,98800.95
2022-09-20T01:00:27.813Z,98800.34
2022-09-20T01:03:02.513Z,98799.05
2022-09-20T01:05:31.275Z,98797.73
2022-09-20T01:07:59.719Z,98796.50
2022-09-20T01:10:28.224Z,98795.58
2022-09-20T01:12:56.498Z,98797.13
2022-09-20T01:15:28.763Z,98796.02
2022-09-20T01:18:01.635Z,98795.40
2022-09-20T01:20:35.008Z,98797.75
2022-09-20T01:23:24.600Z,98797.33
2022-09-20T01:26:14.725Z,98797.23
2022-09-20T01:28:48.065Z,98798.54
2022-09-20T01:31:22.300Z,98800.22
2022-09-20T01:33:58.522Z,98799.29
2022-09-20T01:36:50.877Z,98797.77
2022-09-20T01:39:30.367Z,98798.45
2022-09-20T01:42:05.298Z,98798.95
2022-09-20T01:44:59.487Z,98800.30
2022-09-20T01:47:49.112Z,98798.89
2022-09-20T01:50:32.721Z,98801.61
2022-09-20T01:53:35.362Z,98798.90
2022-09-20T01:56:09.245Z,98801.67
2022-09-20T01:59:07.239Z,98802.84
2022-09-20T02:02:02.645Z,98804.34
2022-09-20T02:04:44.566Z,98806.05
2022-09-20T02:07:31.253Z,98805.07
2022-09-20T02:10:20.901Z,98806.84
2022-09-20T02:13:18.472Z,98807.86
2022-09-20T02:16:08.820Z,98809.56
2022-09-20T02:18:45.918Z,98809.80
2022-09-20T02:21:48.759Z,98810.95
2022-09-20T02:24:53.575Z,98813.11
2022-09-20T02:27:43.482Z,98808.63
2022-09-20T02:30:21.121Z,98806.47
2022-09-20T02:33:19.349Z,98808.79
2022-09-20T02:36:32.007Z,98817.79
2022-09-20T02:39:32.044Z,98818.95
2022-09-20T02:42:25.213Z,98821.69
2022-09-20T02:45:04.473Z,98824.61
2022-09-20T02:47:42.778Z,98824.30
2022-09-20T02:50:35.420Z,98824.83
2022-09-20T02:53:26.861Z,98823.98
2022-09-20T02:56:04.095Z,98824.86
2022-09-20T02:59:04.594Z,98827.05
2022-09-20T03:01:53.056Z,98827.67
2022-09-20T03:04:30.268Z,98830.42
2022-09-20T03:07:23.935Z,98831.86
2022-09-20T03:10:19.293Z,98833.03
2022-09-20T03:13:05.657Z,98836.10
2022-09-20T03:15:48.991Z,98836.33
2022-09-20T03:18:30.282Z,98837.48
2022-09-20T03:21:23.171Z,98839.00
2022-09-20T03:24:10.430Z,98842.83
2022-09-20T03:27:07.860Z,98841.66
2022-09-20T03:29:48.466Z,98842.84
2022-09-20T03:32:28.716Z,98844.40
2022-09-20T03:35:28.226Z,98845.77
2022-09-20T03:37:59.131Z,98841.09
2022-09-20T03:41:05.378Z,98843.21
2022-09-20T03:43:39.357Z,98848.90
2022-09-20T03:46:20.021Z,98846.97
2022-09-20T03:48:57.294Z,98848.76
2022-09-20T03:51:36.949Z,98846.52
2022-09-20T03:54:42.793Z,98853.60
2022-09-20T03:57:46.283Z,98856.98
2022-09-20T04:00:23.770Z,98859.09
2022-09-20T04:03:37.507Z,98862.38
2022-09-20T04:06:41.856Z,98862.11
2022-09-20T04:09:47.842Z,98869.19
2022-09-20T04:12:59.074Z,98871.27
2022-09-20T04:15:50.536Z,98873.56
2022-09-20T04:18:52.816Z,98877.03
2022-09-20T04:21:26.836Z,98876.27
2022-09-20T04:24:12.936Z,98876.59
2022-09-20T04:26:47.526Z,98875.00
2022-09-20T04:29:40.920Z,98882.73
2022-09-20T04:32:29.132Z,98885.56
2022-09-20T04:35:47.167Z,98888.15
2022-09-20T04:38:19.918Z,98887.91
2022-09-20T04:41:13.184Z,98888.67
2022-09-20T04:44:03.079Z,98888.02
2022-09-20T04:47:16.584Z,98890.09
2022-09-20T04:50:16.256Z,98898.58
2022-09-20T04:52:56.746Z,98900.10
2022-09-20T04:55:45.772Z,98897.64
2022-09-20T04:58:33.365Z,98897.13
2022-09-20T05:01:19.836Z,98898.35
2022-09-20T05:04:25.494Z,98901.54
2022-09-20T05:07:22.371Z,98899.35
2022-09-20T05:10:15.023Z,98902.55
2022-09-20T05:12:43.382Z,98905.45
2022-09-20T05:15:21.508Z,98909.15
2022-09-20T05:18:15.732Z,98910.55
2022-09-20T05:21:13.621Z,98909.97
2022-09-20T05:24:04.052Z,98911.50
2022-09-20T05:26:39.095Z,98913.80
2022-09-20T05:29:35.420Z,98917.14
2022-09-20T05:32:14.938Z,98912.77
2022-09-20T05:34:52.545Z,98917.08
2022-09-20T05:37:42.581Z,98917.36
2022-09-20T05:40:29.402Z,98919.67
2022-09-20T05:43:21.180Z,98918.80
2022-09-20T05:46:22.757Z,98924.61
2022-09-20T05:48:57.677Z,98922.52
2022-09-20T05:51:36.812Z,98926.85
2022-09-20T05:54:50.635Z,98927.62
2022-09-20T05:57:34.176Z,98929.39
2022-09-20T06:00:07.763Z,98928.29
2022-09-20T06:02:48.069Z,98927.74
2022-09-20T06:05:33.869Z,98927.81
2022-09-20T06:08:43.774Z,98934.27
2022-09-20T06:11:23.383Z,98935.64
2022-09-20T06:14:27.879Z,98939.23
2022-09-20T06:17:05.372Z,98941.68
2022-09-20T06:19:47.121Z,98945.55
2022-09-20T06:22:37.109Z,98947.02
2022-09-20T06:25:19.310Z,98948.88
2022-09-20T06:27:52.636Z,98951.44
2022-09-20T06:30:31.815Z,98948.92
2022-09-20T06:33:08.041Z,98953.20
2022-09-20T06:35:43.712Z,98956.15
2022-09-20T06:38:49.480Z,98958.04
2022-09-20T06:41:28.524Z,98960.85
2022-09-20T06:43:59.224Z,98967.31
2022-09-20T06:46:32.354Z,98968.56
2022-09-20T06:49:00.789Z,98968.98
2022-09-20T06:51:35.378Z,98967.77
2022-09-20T06:54:06.001Z,98971.67
2022-09-20T06:56:36.872Z,98971.27
2022-09-20T06:59:08.826Z,98973.45
2022-09-20T07:01:38.174Z,98974.88
2022-09-20T07:04:06.546Z,98976.21
2022-09-20T07:06:34.716Z,98976.83
2022-09-20T07:09:04.477Z,98978.25
2022-09-20T07:11:34.450Z,98979.42
2022-09-20T07:14:02.767Z,98983.64
2022-09-20T07:16:31.128Z,98993.66
2022-09-20T07:19:00.110Z,98988.60
2022-09-20T07:21:28.461Z,98993.58
2022-09-20T07:23:58.216Z,98999.44
2022-09-20T07:26:29.463Z,98997.59
2022-09-20T07:28:59.505Z,99002.14
2022-09-20T07:31:29.914Z,99003.93
2022-09-20T07:33:58.860Z,99005.34
2022-09-20T07:36:27.147Z,99006.73
2022-09-20T07:38:55.420Z,99009.45
2022-09-20T07:41:23.799Z,99009.64
2022-09-20T07:43:52.382Z,99010.02
2022-09-20T07:46:22.406Z,99012.58
2022-09-20T07:48:50.704Z,99012.59
2022-09-20T07:51:18.960Z,99017.76
2022-09-20T07:53:47.177Z,99020.13
2022-09-20T07:56:16.677Z,99023.20
2022-09-20T07:58:48.705Z,99026.77
2022-09-20T08:01:22.765Z,99028.75
2022-09-20T08:03:52.037Z,99030.77
2022-09-20T08:06:21.548Z,99030.67
2022-09-20T08:08:51.806Z,99031.86
2022-09-20T08:11:28.937Z,99032.84
2022-09-20T08:14:08.324Z,99032.04
2022-09-20T08:16:43.160Z,99036.92
2022-09-20T08:19:21.047Z,99034.17
2022-09-20T08:21:51.045Z,99036.55
2022-09-20T08:24:19.376Z,99038.33
2022-09-20T08:26:48.450Z,99040.13
2022-09-20T08:29:16.818Z,99039.29
2022-09-20T08:31:45.225Z,99041.67
2022-09-20T08:34:16.333Z,99045.98
2022-09-20T08:36:47.307Z,99045.96
2022-09-20T08:42:14.915Z,99044.73
2022-09-20T08:44:59.236Z,99048.65
2022-09-20T08:47:49.660Z,99048.35
2022-09-20T08:50:18.087Z,99045.30
2022-09-20T08:52:49.772Z,99044.55
2022-09-20T08:55:24.720Z,99042.70
2022-09-20T08:57:54.324Z,99044.41
2022-09-20T09:00:26.545Z,99042.02
2022-09-20T09:02:57.558Z,99038.12
2022-09-20T09:05:47.778Z,99037.84
2022-09-20T09:08:19.613Z,99032.63
2022-09-20T09:11:17.528Z,99033.91
2022-09-20T09:14:30.771Z,99025.69
2022-09-20T09:16:58.830Z,99024.75
2022-09-20T09:19:43.442Z,99019.86
2022-09-20T09:22:17.548Z,99015.34
2022-09-20T09:24:46.454Z,99009.16
2022-09-20T09:27:19.472Z,99004.50
2022-09-20T09:29:53.127Z,99015.84
2022-09-20T09:32:31.458Z,99020.02
2022-09-20T09:35:21.232Z,99033.46
2022-09-20T09:37:58.571Z,99032.36
2022-09-20T09:40:29.512Z,99032.86
2022-09-20T09:43:01.118Z,99035.02
2022-09-20T09:45:38.795Z,99031.59
2022-09-20T09:48:28.002Z,99032.27
2022-09-20T09:51:15.540Z,99029.73
2022-09-20T09:53:45.888Z,99033.66
2022-09-20T09:56:38.668Z,99040.59
2022-09-20T09:59:47.935Z,99067.11
2022-09-20T10:02:31.104Z,99073.17
2022-09-20T10:05:09.281Z,99067.52
2022-09-20T10:07:40.349Z,99061.16
2022-09-20T10:10:11.271Z,99057.24
2022-09-20T10:12:54.458Z,99057.80
2022-09-20T10:15:41.551Z,99057.52
2022-09-20T10:18:12.590Z,99053.08
2022-09-20T10:21:08.010Z,99049.31
2022-09-20T10:24:04.507Z,99051.23
2022-09-20T10:27:14.414Z,99047.60
2022-09-20T10:30:00.530Z,99048.88
2022-09-20T10:33:03.770Z,99051.23
2022-09-20T10:35:52.650Z,99053.12
2022-09-20T10:38:25.445Z,99058.08
2022-09-20T10:41:24.339Z,99060.71
2022-09-20T10:44:18.519Z,99077.49
2022-09-20T10:47:11.046Z,99078.44
2022-09-20T10:49:39.081Z,99084.32
2022-09-20T10:52:22.040Z,99078.55
2022-09-20T10:54:55.772Z,99077.38
2022-09-20T10:57:55.779Z,99074.73
2022-09-20T11:00:34.593Z,99073.59
2022-09-20T11:03:11.525Z,99076.16
2022-09-20T11:06:07.298Z,99081.73
2022-09-20T11:08:38.534Z,99086.22
2022-09-20T11:11:13.774Z,99091.16
2022-09-20T11:13:54.100Z,99085.69
2022-09-20T11:16:33.949Z,99094.26
2022-09-20T11:19:34.834Z,99094.11
2022-09-20T11:22:11.909Z,99088.02
2022-09-20T11:24:57.995Z,99090.03
2022-09-20T11:27:37.947Z,99085.09
2022-09-20T11:30:15.964Z,99082.94
2022-09-20T11:33:03.067Z,99079.96
2022-09-20T11:35:35.094Z,99078.94
2022-09-20T11:38:29.661Z,99076.65
2022-09-20T11:41:17.810Z,99075.27
2022-09-20T11:43:48.085Z,99078.33
2022-09-20T11:46:27.015Z,99080.96
2022-09-20T11:49:03.026Z,99074.67
2022-09-20T11:52:03.523Z,99073.12
2022-09-20T11:54:48.370Z,99074.73
2022-09-20T11:57:17.066Z,99067.51
2022-09-20T11:59:59.961Z,99065.02
2022-09-20T12:02:37.388Z,99061.24
2022-09-20T12:05:07.981Z,99057.02
2022-09-20T12:07:43.953Z,99056.91
2022-09-20T12:10:26.228Z,99055.01
2022-09-20T12:13:00.873Z,99052.59
2022-09-20T12:15:42.110Z,99055.94
2022-09-20T12:18:39.707Z,99060.81
2022-09-20T12:21:21.241Z,99055.20
2022-09-20T12:23:52.625Z,99055.33
2022-09-20T12:26:21.150Z,99057.52
2022-09-20T12:28:58.370Z,99057.59
2022-09-20T12:31:29.836Z,99051.35
2022-09-20T12:34:04.189Z,99042.29
2022-09-20T12:36:39.844Z,99039.44
2022-09-20T12:39:17.562Z,99035.30
2022-09-20T12:41:59.830Z,99038.20
2022-09-20T12:44:44.184Z,99033.81
2022-09-20T12:47:12.218Z,99036.04
2022-09-20T12:50:00.752Z,99032.02
2022-09-20T12:52:53.910Z,99032.95
2022-09-20T12:55:28.110Z,99029.17
2022-09-20T12:58:02.609Z,99033.06
2022-09-20T13:01:01.213Z,99042.05
2022-09-20T13:03:39.010Z,99045.99
2022-09-20T13:06:07.176Z,99051.34
2022-09-20T13:08:55.740Z,99056.42
2022-09-20T13:11:27.595Z,99064.02
2022-09-20T13:13:58.408Z,99066.81
2022-09-20T13:16:40.478Z,99067.09
2022-09-20T13:19:26.076Z,99074.45
2022-09-20T13:22:01.312Z,99071.83
2022-09-20T13:24:48.076Z,99072.13
2022-09-20T13:27:21.232Z,99071.44
2022-09-20T13:29:49.417Z,99073.71
2022-09-20T13:32:31.639Z,99072.42
2022-09-20T13:35:12.714Z,99075.29
2022-09-20T13:38:00.546Z,99074.83
2022-09-20T13:40:35.839Z,99076.48
2022-09-20T13:43:24.622Z,99071.23
2022-09-20T13:45:56.759Z,99070.70
2022-09-20T13:48:29.152Z,99057.94
2022-09-20T13:50:58.349Z,99060.13
2022-09-20T13:53:41.067Z,99058.16
2022-09-20T13:56:30.110Z,99061.17
2022-09-20T13:59:05.255Z,99063.19
2022-09-20T14:01:35.548Z,99060.43
2022-09-20T14:04:08.095Z,99059.80
2022-09-20T14:06:36.731Z,99066.14
2022-09-20T14:09:11.011Z,99061.80
2022-09-20T14:11:40.085Z,99064.86
2022-09-20T14:14:10.056Z,99064.02
2022-09-20T14:16:40.469Z,99062.69
2022-09-20T14:19:09.070Z,99063.47
2022-09-20T14:21:38.295Z,99058.23
2022-09-20T14:24:25.021Z,99065.93
2022-09-20T14:27:19.748Z,99067.39
2022-09-20T14:29:50.550Z,99062.61
2022-09-20T14:32:18.567Z,99063.31
2022-09-20T14:35:00.223Z,99060.65
2022-09-20T14:37:36.495Z,99060.73
2022-09-20T14:40:17.499Z,99062.40
2022-09-20T14:42:48.240Z,99065.48
2022-09-20T14:45:21.229Z,99068.39
2022-09-20T14:47:54.599Z,99076.85
2022-09-20T14:50:39.645Z,99080.58
2022-09-20T14:53:13.657Z,99080.61
2022-09-20T14:56:04.353Z,99082.77
2022-09-20T14:58:33.428Z,99082.61
2022-09-20T15:01:18.971Z,99084.38
2022-09-20T15:03:47.138Z,99085.67
2022-09-20T15:06:15.372Z,99086.77
2022-09-20T15:08:46.587Z,99086.07
2022-09-20T15:11:17.291Z,99088.70
2022-09-20T15:13:46.005Z,99090.90
2022-09-20T15:16:17.646Z,99087.13
2022-09-20T15:18:45.979Z,99088.20
2022-09-20T15:21:14.020Z,99085.49
2022-09-20T15:23:42.514Z,99091.27
2022-09-20T15:26:13.728Z,99092.87
2022-09-20T15:28:41.736Z,99093.77
2022-09-20T15:31:10.911Z,99096.88
2022-09-20T15:33:38.982Z,99097.80
2022-09-20T15:36:08.250Z,99094.96
2022-09-20T15:38:36.269Z,99095.02
2022-09-20T15:41:04.885Z,99100.39
2022-09-20T15:43:34.216Z,99101.85
2022-09-20T15:46:24.723Z,99106.02
2022-09-20T15:48:54.550Z,99106.20
2022-09-20T15:51:23.318Z,99111.10
2022-09-20T15:53:57.376Z,99114.64
2022-09-20T15:56:30.707Z,99115.09
2022-09-20T15:59:08.090Z,99111.96
2022-09-20T16:01:41.476Z,99113.13
2022-09-20T16:04:15.650Z,99118.61
2022-09-20T16:06:46.539Z,99119.34
2022-09-20T16:09:15.304Z,99123.11
2022-09-20T16:11:43.574Z,99125.75
2022-09-20T16:14:11.899Z,99126.61
2022-09-20T16:16:42.474Z,99128.67
2022-09-20T16:19:17.545Z,99131.95
2022-09-20T16:21:56.600Z,99138.13
2022-09-20T16:24:29.346Z,99136.85
2022-09-20T16:27:01.161Z,99139.83
2022-09-20T16:29:31.797Z,99143.08
2022-09-20T16:32:03.915Z,99144.93
2022-09-20T16:34:35.592Z,99145.16
2022-09-20T16:37:12.450Z,99152.08
2022-09-20T16:39:42.734Z,99154.42
2022-09-20T16:42:13.198Z,99155.49
2022-09-20T16:44:43.568Z,99157.98
2022-09-20T16:47:18.719Z,99166.83
2022-09-20T16:49:48.981Z,99165.78
2022-09-20T16:52:17.351Z,99169.30
2022-09-20T16:54:47.169Z,99173.04
2022-09-20T16:57:16.462Z,99180.13
2022-09-20T16:59:47.059Z,99183.30
2022-09-20T17:02:16.185Z,99187.05
2022-09-20T17:04:47.934Z,99195.91
2022-09-20T17:07:17.082Z,99198.56
2022-09-20T17:09:45.918Z,99202.65
2022-09-20T17:12:19.669Z,99210.84
2022-09-20T17:14:49.010Z,99211.52
2022-09-20T17:17:18.752Z,99211.20
2022-09-20T17:19:48.300Z,99214.84
2022-09-20T17:22:18.185Z,99215.98
2022-09-20T17:24:47.677Z,99222.05
2022-09-20T17:27:17.171Z,99223.14
2022-09-20T17:29:46.772Z,99224.78
2022-09-20T17:32:15.645Z,99227.56
2022-09-20T17:34:43.980Z,99232.10
2022-09-20T17:37:12.797Z,99238.33
2022-09-20T17:39:41.212Z,99245.60
2022-09-20T17:42:09.502Z,99251.70
2022-09-20T17:44:38.219Z,99254.24
2022-09-20T17:47:06.722Z,99255.27
2022-09-20T17:49:35.049Z,99253.11
2022-09-20T17:52:04.619Z,99252.80
2022-09-20T17:54:32.889Z,99254.50
2022-09-20T17:57:01.668Z,99258.44
2022-09-20T17:59:29.837Z,99259.14
2022-09-20T18:01:58.437Z,99259.07
2022-09-20T18:04:26.854Z,99259.16
2022-09-20T18:06:55.784Z,99265.20
2022-09-20T18:09:27.372Z,99263.73
2022-09-20T18:11:56.263Z,99264.89
2022-09-20T18:14:27.829Z,99263.16
2022-09-20T18:17:01.226Z,99268.02
2022-09-20T18:19:33.967Z,99270.02
2022-09-20T18:22:03.422Z,99273.25
2022-09-20T18:24:32.207Z,99274.45
2022-09-20T18:27:01.224Z,99278.98
2022-09-20T18:29:33.598Z,99277.23
2022-09-20T18:32:02.614Z,99282.06
2022-09-20T18:34:34.354Z,99282.77
2022-09-20T18:37:03.998Z,99286.04
2022-09-20T18:39:33.797Z,99286.83
2022-09-20T18:42:03.486Z,99288.04
2022-09-20T18:44:33.897Z,99291.53
2022-09-20T18:47:04.213Z,99292.17
2022-09-20T18:49:32.569Z,99294.17
2022-09-20T18:52:01.766Z,99296.11
2022-09-20T18:54:33.597Z,99301.41
2022-09-20T18:57:02.567Z,99301.73
2022-09-20T18:59:30.991Z,99304.70
2022-09-20T19:02:45.301Z,99309.29
2022-09-20T19:05:30.307Z,99309.38
2022-09-20T19:07:59.198Z,99313.56
2022-09-20T19:10:46.461Z,99317.15
2022-09-20T19:13:43.262Z,99316.47
2022-09-20T19:16:28.087Z,99322.23
2022-09-20T19:19:27.071Z,99320.75
2022-09-20T19:22:08.317Z,99322.93
2022-09-20T19:25:02.167Z,99326.33
2022-09-20T19:27:31.960Z,99326.40
2022-09-20T19:30:00.578Z,99328.88
2022-09-20T19:32:29.155Z,99331.29
2022-09-20T19:35:01.953Z,99335.14
2022-09-20T19:38:15.677Z,99337.13
2022-09-20T19:41:11.302Z,99337.73
2022-09-20T19:43:45.407Z,99329.91
2022-09-20T19:46:45.119Z,99330.90
2022-09-20T19:49:23.537Z,99331.01
2022-09-20T19:51:52.181Z,99334.20
2022-09-20T19:54:20.761Z,99336.77
2022-09-20T19:56:55.772Z,99335.02
2022-09-20T19:59:25.404Z,99335.45
2022-09-20T20:01:54.499Z,99339.70
2022-09-20T20:04:23.223Z,99338.58
2022-09-20T20:07:07.341Z,99336.79
2022-09-20T20:09:52.350Z,99335.04
2022-09-20T20:12:31.214Z,99339.23
2022-09-20T20:15:25.514Z,99338.84
2022-09-20T20:17:53.745Z,99342.02
2022-09-20T20:20:40.258Z,99343.27
2022-09-20T20:23:30.496Z,99346.48
2022-09-20T20:26:09.201Z,99348.70
2022-09-20T20:28:37.908Z,99352.02
2022-09-20T20:31:12.416Z,99349.88
2022-09-20T20:33:41.120Z,99349.98
2022-09-20T20:36:12.019Z,99351.64
2022-09-20T20:38:41.808Z,99346.98
2022-09-20T20:41:12.780Z,99347.99
2022-09-20T20:43:42.828Z,99346.48
2022-09-20T20:46:18.690Z,99349.33
2022-09-20T20:48:47.974Z,99346.18
2022-09-20T20:51:18.798Z,99346.66
2022-09-20T20:53:53.054Z,99346.27
2022-09-20T20:56:30.083Z,99344.06
2022-09-20T20:59:02.046Z,99342.02
2022-09-20T21:01:32.891Z,99342.36
2022-09-20T21:04:01.845Z,99341.95
2022-09-20T21:06:36.324Z,99340.72
2022-09-20T21:09:05.924Z,99342.84
2022-09-20T21:11:37.838Z,99342.19
2022-09-20T21:14:07.479Z,99338.50
2022-09-20T21:16:38.650Z,99337.54
2022-09-20T21:19:07.156Z,99335.97
2022-09-20T21:21:38.852Z,99341.01
2022-09-20T21:24:09.196Z,99338.84
2022-09-20T21:26:40.849Z,99338.83
2022-09-20T21:29:14.672Z,99339.84
2022-09-20T21:31:45.350Z,99343.79
2022-09-20T21:34:15.749Z,99343.00
2022-09-20T21:36:44.966Z,99340.14
2022-09-20T21:39:13.378Z,99343.36
2022-09-20T21:41:41.763Z,99337.36
2022-09-20T21:44:10.847Z,99339.73
2022-09-20T21:46:41.457Z,99344.20
2022-09-20T21:49:11.763Z,99346.23
2022-09-20T21:51:42.947Z,99351.33
2022-09-20T21:54:11.794Z,99344.84
2022-09-20T21:56:41.635Z,99347.66
2022-09-20T21:59:09.965Z,99347.41
2022-09-20T22:01:40.509Z,99345.69
2022-09-20T22:04:11.225Z,99352.00
2022-09-20T22:06:44.528Z,99352.23
2022-09-20T22:09:15.447Z,99350.23
2022-09-20T22:11:47.024Z,99355.73
2022-09-20T22:14:19.963Z,99357.48
2022-09-20T22:16:51.555Z,99358.48
2022-09-20T22:19:20.645Z,99356.48
2022-09-20T22:21:51.636Z,99359.63
2022-09-20T22:24:19.961Z,99360.79
2022-09-20T22:26:51.179Z,99358.95
2022-09-20T22:29:20.304Z,99358.46
2022-09-20T22:31:50.416Z,99355.52
2022-09-20T22:34:24.480Z,99353.85
2022-09-20T22:36:54.090Z,99356.73
2022-09-20T22:39:22.266Z,99356.52
2022-09-20T22:41:51.167Z,99360.05
2022-09-20T22:44:19.416Z,99357.54
2022-09-20T22:46:47.694Z,99353.40
2022-09-20T22:49:16.301Z,99357.88
2022-09-20T22:51:44.566Z,99360.61
2022-09-20T22:54:12.987Z,99361.59
2022-09-20T22:56:42.668Z,99360.23
2022-09-20T22:59:15.795Z,99358.23
2022-09-20T23:01:46.315Z,99357.40
2022-09-20T23:04:20.219Z,99353.23
2022-09-20T23:06:55.063Z,99355.40
2022-09-20T23:09:26.400Z,99355.88
2022-09-20T23:11:54.625Z,99356.00
2022-09-20T23:14:23.501Z,99354.90
2022-09-20T23:16:51.884Z,99359.61
2022-09-20T23:19:20.704Z,99357.43
2022-09-20T23:21:48.925Z,99356.52
2022-09-20T23:24:17.260Z,99358.24
2022-09-20T23:26:45.685Z,99358.74
2022-09-20T23:29:16.403Z,99361.65
2022-09-20T23:31:47.225Z,99363.09
2022-09-20T23:34:18.040Z,99362.98
2022-09-20T23:36:46.958Z,99366.55
2022-09-20T23:39:16.440Z,99363.70
2022-09-20T23:41:50.014Z,99361.40
2022-09-20T23:44:20.247Z,99355.70
2022-09-20T23:46:48.458Z,99363.61
2022-09-20T23:49:16.845Z,99359.05
2022-09-20T23:51:45.174Z,99364.23
2022-09-20T23:54:13.456Z,99362.98
2022-09-20T23:56:43.040Z,99362.86
2022-09-20T23:59:11.319Z,99362.20
